sensor_id;sensor_type;location;lat;lon;timestamp;P1;durP1;ratioP1;P2;durP2;ratioP2
74383;SDS011;62824;52.994;-3.936;2022-12-07T00:01:39;4.38;;;2.40;;
74383;SDS011;62824;52.994;-3.936;2022-12-07T00:04:07;6.63;;;2.47;;
74383;SDS011;62824;52.994;-3.936;2022-12-07T00:06:37;3.92;;;2.53;;
74383;SDS011;62824;52.994;-3.936;2022-12-07T00:09:06;6.13;;;2.75;;
74383;SDS011;62824;52.994;-3.936;2022-12-07T00:11:35;9.00;;;3.15;;
74383;SDS011;62824;52.994;-3.936;2022-12-07T00:14:02;9.40;;;3.15;;
74383;SDS011;62824;52.994;-3.936;2022-12-07T00:16:30;5.90;;;2.88;;
74383;SDS011;62824;52.994;-3.936;2022-12-07T00:18:58;5.32;;;3.45;;
74383;SDS011;62824;52.994;-3.936;2022-12-07T00:21:25;4.38;;;2.97;;
74383;SDS011;62824;52.994;-3.936;2022-12-07T00:23:56;5.30;;;2.60;;
74383;SDS011;62824;52.994;-3.936;2022-12-07T00:26:26;6.32;;;2.45;;
74383;SDS011;62824;52.994;-3.936;2022-12-07T00:28:55;8.23;;;2.58;;
74383;SDS011;62824;52.994;-3.936;2022-12-07T00:31:24;3.95;;;2.20;;
74383;SDS011;62824;52.994;-3.936;2022-12-07T00:33:54;5.53;;;2.35;;
74383;SDS011;62824;52.994;-3.936;2022-12-07T00:36:22;7.70;;;2.33;;
74383;SDS011;62824;52.994;-3.936;2022-12-07T00:38:49;4.65;;;2.38;;
74383;SDS011;62824;52.994;-3.936;2022-12-07T00:41:19;7.85;;;2.63;;
74383;SDS011;62824;52.994;-3.936;2022-12-07T00:43:46;3.47;;;2.00;;
74383;SDS011;62824;52.994;-3.936;2022-12-07T00:46:13;7.05;;;2.30;;
74383;SDS011;62824;52.994;-3.936;2022-12-07T00:48:40;5.80;;;2.15;;
74383;SDS011;62824;52.994;-3.936;2022-12-07T00:51:06;6.90;;;2.15;;
74383;SDS011;62824;52.994;-3.936;2022-12-07T00:53:36;6.03;;;2.13;;
74383;SDS011;62824;52.994;-3.936;2022-12-07T00:56:11;4.97;;;2.08;;
74383;SDS011;62824;52.994;-3.936;2022-12-07T00:58:38;6.43;;;1.92;;
74383;SDS011;62824;52.994;-3.936;2022-12-07T01:01:04;3.67;;;1.83;;
74383;SDS011;62824;52.994;-3.936;2022-12-07T01:03:31;5.72;;;2.30;;
74383;SDS011;62824;52.994;-3.936;2022-12-07T01:05:57;4.18;;;2.10;;
74383;SDS011;62824;52.994;-3.936;2022-12-07T01:08:24;4.65;;;1.95;;
74383;SDS011;62824;52.994;-3.936;2022-12-07T01:10:58;4.18;;;2.30;;
74383;SDS011;62824;52.994;-3.936;2022-12-07T01:13:24;3.95;;;1.65;;
74383;SDS011;62824;52.994;-3.936;2022-12-07T01:15:50;5.97;;;2.10;;
74383;SDS011;62824;52.994;-3.936;2022-12-07T01:18:16;6.30;;;2.40;;
74383;SDS011;62824;52.994;-3.936;2022-12-07T01:20:41;3.45;;;1.65;;
74383;SDS011;62824;52.994;-3.936;2022-12-07T01:23:07;5.68;;;1.60;;
74383;SDS011;62824;52.994;-3.936;2022-12-07T01:25:33;4.10;;;1.65;;
74383;SDS011;62824;52.994;-3.936;2022-12-07T01:27:59;6.32;;;2.00;;
74383;SDS011;62824;52.994;-3.936;2022-12-07T01:30:25;7.30;;;1.88;;
74383;SDS011;62824;52.994;-3.936;2022-12-07T01:32:51;3.60;;;1.95;;
74383;SDS011;62824;52.994;-3.936;2022-12-07T01:35:16;5.13;;;1.50;;
74383;SDS011;62824;52.994;-3.936;2022-12-07T01:37:42;5.10;;;1.77;;
74383;SDS011;62824;52.994;-3.936;2022-12-07T01:40:09;3.72;;;1.85;;
74383;SDS011;62824;52.994;-3.936;2022-12-07T01:42:35;3.40;;;1.80;;
74383;SDS011;62824;52.994;-3.936;2022-12-07T01:48:01;3.08;;;1.40;;
74383;SDS011;62824;52.994;-3.936;2022-12-07T01:50:28;3.10;;;1.63;;
74383;SDS011;62824;52.994;-3.936;2022-12-07T01:52:56;5.97;;;1.70;;
74383;SDS011;62824;52.994;-3.936;2022-12-07T01:55:27;7.80;;;2.22;;
74383;SDS011;62824;52.994;-3.936;2022-12-07T01:57:53;3.28;;;1.42;;
74383;SDS011;62824;52.994;-3.936;2022-12-07T02:00:19;3.53;;;1.40;;
74383;SDS011;62824;52.994;-3.936;2022-12-07T02:02:47;7.00;;;2.00;;
74383;SDS011;62824;52.994;-3.936;2022-12-07T02:05:29;2.22;;;1.30;;
74383;SDS011;62824;52.994;-3.936;2022-12-07T02:07:55;3.17;;;1.52;;
74383;SDS011;62824;52.994;-3.936;2022-12-07T02:10:23;3.88;;;1.30;;
74383;SDS011;62824;52.994;-3.936;2022-12-07T02:12:53;3.88;;;1.40;;
74383;SDS011;62824;52.994;-3.936;2022-12-07T02:15:24;4.50;;;1.75;;
74383;SDS011;62824;52.994;-3.936;2022-12-07T02:18:16;4.25;;;1.55;;
74383;SDS011;62824;52.994;-3.936;2022-12-07T02:32:24;6.45;;;1.40;;
74383;SDS011;62824;52.994;-3.936;2022-12-07T02:34:52;6.50;;;1.77;;
74383;SDS011;62824;52.994;-3.936;2022-12-07T02:37:34;3.35;;;1.83;;
74383;SDS011;62824;52.994;-3.936;2022-12-07T02:45:51;2.75;;;1.65;;
74383;SDS011;62824;52.994;-3.936;2022-12-07T02:48:19;4.57;;;1.67;;
74383;SDS011;62824;52.994;-3.936;2022-12-07T02:50:49;6.13;;;1.27;;
74383;SDS011;62824;52.994;-3.936;2022-12-07T02:55:54;5.82;;;1.77;;
74383;SDS011;62824;52.994;-3.936;2022-12-07T02:58:23;4.28;;;1.95;;
74383;SDS011;62824;52.994;-3.936;2022-12-07T03:06:53;4.38;;;1.50;;
74383;SDS011;62824;52.994;-3.936;2022-12-07T03:12:03;6.40;;;1.52;;
74383;SDS011;62824;52.994;-3.936;2022-12-07T03:14:38;3.50;;;1.50;;
74383;SDS011;62824;52.994;-3.936;2022-12-07T03:17:12;7.40;;;1.85;;
74383;SDS011;62824;52.994;-3.936;2022-12-07T03:19:42;3.17;;;1.67;;
74383;SDS011;62824;52.994;-3.936;2022-12-07T03:22:10;5.60;;;2.00;;
74383;SDS011;62824;52.994;-3.936;2022-12-07T03:24:51;4.85;;;2.30;;
74383;SDS011;62824;52.994;-3.936;2022-12-07T03:27:27;5.75;;;2.70;;
74383;SDS011;62824;52.994;-3.936;2022-12-07T03:30:07;8.75;;;2.70;;
74383;SDS011;62824;52.994;-3.936;2022-12-07T03:32:59;6.30;;;2.35;;
74383;SDS011;62824;52.994;-3.936;2022-12-07T03:35:40;6.30;;;2.80;;
74383;SDS011;62824;52.994;-3.936;2022-12-07T03:41:17;6.28;;;2.60;;
74383;SDS011;62824;52.994;-3.936;2022-12-07T03:43:54;6.93;;;3.22;;
74383;SDS011;62824;52.994;-3.936;2022-12-07T03:54:31;4.85;;;2.22;;
74383;SDS011;62824;52.994;-3.936;2022-12-07T03:57:06;4.47;;;2.25;;
74383;SDS011;62824;52.994;-3.936;2022-12-07T03:59:34;4.53;;;1.85;;
74383;SDS011;62824;52.994;-3.936;2022-12-07T04:02:04;5.65;;;2.20;;
74383;SDS011;62824;52.994;-3.936;2022-12-07T04:04:32;4.90;;;2.33;;
74383;SDS011;62824;52.994;-3.936;2022-12-07T04:06:59;7.18;;;2.58;;
74383;SDS011;62824;52.994;-3.936;2022-12-07T04:09:25;3.45;;;2.03;;
74383;SDS011;62824;52.994;-3.936;2022-12-07T04:11:52;7.85;;;1.92;;
74383;SDS011;62824;52.994;-3.936;2022-12-07T04:14:17;5.97;;;2.17;;
74383;SDS011;62824;52.994;-3.936;2022-12-07T04:16:43;2.72;;;1.58;;
74383;SDS011;62824;52.994;-3.936;2022-12-07T04:19:22;3.85;;;2.08;;
74383;SDS011;62824;52.994;-3.936;2022-12-07T04:21:53;3.63;;;1.90;;
74383;SDS011;62824;52.994;-3.936;2022-12-07T04:24:19;4.88;;;1.95;;
74383;SDS011;62824;52.994;-3.936;2022-12-07T04:26:45;3.53;;;1.75;;
74383;SDS011;62824;52.994;-3.936;2022-12-07T04:29:12;7.95;;;2.03;;
74383;SDS011;62824;52.994;-3.936;2022-12-07T04:31:38;5.40;;;1.67;;
74383;SDS011;62824;52.994;-3.936;2022-12-07T04:34:04;4.78;;;1.60;;
74383;SDS011;62824;52.994;-3.936;2022-12-07T04:36:31;4.47;;;1.65;;
74383;SDS011;62824;52.994;-3.936;2022-12-07T04:38:57;6.85;;;1.98;;
74383;SDS011;62824;52.994;-3.936;2022-12-07T04:41:23;3.45;;;1.60;;
74383;SDS011;62824;52.994;-3.936;2022-12-07T04:43:56;7.40;;;2.38;;
74383;SDS011;62824;52.994;-3.936;2022-12-07T04:46:23;3.20;;;1.52;;
74383;SDS011;62824;52.994;-3.936;2022-12-07T04:48:50;4.47;;;2.20;;
74383;SDS011;62824;52.994;-3.936;2022-12-07T04:51:18;3.20;;;1.75;;
74383;SDS011;62824;52.994;-3.936;2022-12-07T04:53:49;6.47;;;1.95;;
74383;SDS011;62824;52.994;-3.936;2022-12-07T04:56:15;3.45;;;2.03;;
74383;SDS011;62824;52.994;-3.936;2022-12-07T04:58:42;6.15;;;2.30;;
74383;SDS011;62824;52.994;-3.936;2022-12-07T05:01:09;7.53;;;1.85;;
74383;SDS011;62824;52.994;-3.936;2022-12-07T05:03:35;5.80;;;1.67;;
74383;SDS011;62824;52.994;-3.936;2022-12-07T05:06:02;3.10;;;1.58;;
74383;SDS011;62824;52.994;-3.936;2022-12-07T05:08:28;2.60;;;1.35;;
74383;SDS011;62824;52.994;-3.936;2022-12-07T05:10:54;5.40;;;1.63;;
74383;SDS011;62824;52.994;-3.936;2022-12-07T05:13:20;2.60;;;1.40;;
74383;SDS011;62824;52.994;-3.936;2022-12-07T05:15:46;3.25;;;1.42;;
74383;SDS011;62824;52.994;-3.936;2022-12-07T05:18:13;3.00;;;2.15;;
74383;SDS011;62824;52.994;-3.936;2022-12-07T05:20:39;3.58;;;1.67;;
74383;SDS011;62824;52.994;-3.936;2022-12-07T05:23:05;4.90;;;1.60;;
74383;SDS011;62824;52.994;-3.936;2022-12-07T05:25:31;5.25;;;1.60;;
74383;SDS011;62824;52.994;-3.936;2022-12-07T05:27:57;2.72;;;1.63;;
74383;SDS011;62824;52.994;-3.936;2022-12-07T05:30:24;3.42;;;1.67;;
74383;SDS011;62824;52.994;-3.936;2022-12-07T05:32:50;4.55;;;1.25;;
74383;SDS011;62824;52.994;-3.936;2022-12-07T05:35:16;3.63;;;1.50;;
74383;SDS011;62824;52.994;-3.936;2022-12-07T05:37:43;3.83;;;1.25;;
74383;SDS011;62824;52.994;-3.936;2022-12-07T05:40:09;6.68;;;3.10;;
74383;SDS011;62824;52.994;-3.936;2022-12-07T05:42:37;8.77;;;3.33;;
74383;SDS011;62824;52.994;-3.936;2022-12-07T05:45:03;6.38;;;3.28;;
74383;SDS011;62824;52.994;-3.936;2022-12-07T05:47:29;4.78;;;3.63;;
74383;SDS011;62824;52.994;-3.936;2022-12-07T05:49:55;7.28;;;3.72;;
74383;SDS011;62824;52.994;-3.936;2022-12-07T05:52:21;6.97;;;2.78;;
74383;SDS011;62824;52.994;-3.936;2022-12-07T05:54:46;4.22;;;2.25;;
74383;SDS011;62824;52.994;-3.936;2022-12-07T05:57:12;5.20;;;2.20;;
74383;SDS011;62824;52.994;-3.936;2022-12-07T05:59:38;5.10;;;2.47;;
74383;SDS011;62824;52.994;-3.936;2022-12-07T06:02:07;7.38;;;2.55;;
74383;SDS011;62824;52.994;-3.936;2022-12-07T06:04:37;7.18;;;2.30;;
74383;SDS011;62824;52.994;-3.936;2022-12-07T06:07:04;4.72;;;1.73;;
74383;SDS011;62824;52.994;-3.936;2022-12-07T06:09:30;2.97;;;1.20;;
74383;SDS011;62824;52.994;-3.936;2022-12-07T06:11:57;4.57;;;1.70;;
74383;SDS011;62824;52.994;-3.936;2022-12-07T06:14:41;4.22;;;1.38;;
74383;SDS011;62824;52.994;-3.936;2022-12-07T06:17:07;1.30;;;0.80;;
74383;SDS011;62824;52.994;-3.936;2022-12-07T06:19:34;5.80;;;1.10;;
74383;SDS011;62824;52.994;-3.936;2022-12-07T06:22:00;2.03;;;0.80;;
74383;SDS011;62824;52.994;-3.936;2022-12-07T06:24:26;0.80;;;0.70;;
74383;SDS011;62824;52.994;-3.936;2022-12-07T06:26:52;4.47;;;2.30;;
74383;SDS011;62824;52.994;-3.936;2022-12-07T06:29:18;7.53;;;3.58;;
74383;SDS011;62824;52.994;-3.936;2022-12-07T06:31:44;5.35;;;2.65;;
74383;SDS011;62824;52.994;-3.936;2022-12-07T06:34:11;4.28;;;2.58;;
74383;SDS011;62824;52.994;-3.936;2022-12-07T06:36:39;7.82;;;3.00;;
74383;SDS011;62824;52.994;-3.936;2022-12-07T06:39:05;10.13;;;3.20;;
74383;SDS011;62824;52.994;-3.936;2022-12-07T06:41:31;7.38;;;2.35;;
74383;SDS011;62824;52.994;-3.936;2022-12-07T06:43:57;3.53;;;2.20;;
74383;SDS011;62824;52.994;-3.936;2022-12-07T06:46:23;7.80;;;1.98;;
74383;SDS011;62824;52.994;-3.936;2022-12-07T06:48:49;3.67;;;2.10;;
74383;SDS011;62824;52.994;-3.936;2022-12-07T06:51:15;4.38;;;1.80;;
74383;SDS011;62824;52.994;-3.936;2022-12-07T06:53:41;5.78;;;1.98;;
74383;SDS011;62824;52.994;-3.936;2022-12-07T06:56:07;5.20;;;2.55;;
74383;SDS011;62824;52.994;-3.936;2022-12-07T06:58:33;3.45;;;1.55;;
74383;SDS011;62824;52.994;-3.936;2022-12-07T07:00:58;6.95;;;2.75;;
74383;SDS011;62824;52.994;-3.936;2022-12-07T07:03:24;25.35;;;10.30;;
74383;SDS011;62824;52.994;-3.936;2022-12-07T07:05:50;26.38;;;12.38;;
74383;SDS011;62824;52.994;-3.936;2022-12-07T07:08:15;12.25;;;5.85;;
74383;SDS011;62824;52.994;-3.936;2022-12-07T07:10:41;14.80;;;7.10;;
74383;SDS011;62824;52.994;-3.936;2022-12-07T07:13:07;16.27;;;8.07;;
74383;SDS011;62824;52.994;-3.936;2022-12-07T07:15:34;15.02;;;7.90;;
74383;SDS011;62824;52.994;-3.936;2022-12-07T07:18:00;9.82;;;4.45;;
74383;SDS011;62824;52.994;-3.936;2022-12-07T07:20:27;5.30;;;2.97;;
74383;SDS011;62824;52.994;-3.936;2022-12-07T07:22:56;3.58;;;1.15;;
74383;SDS011;62824;52.994;-3.936;2022-12-07T07:25:22;2.80;;;1.80;;
74383;SDS011;62824;52.994;-3.936;2022-12-07T07:27:47;3.10;;;1.50;;
74383;SDS011;62824;52.994;-3.936;2022-12-07T07:30:13;5.78;;;2.88;;
74383;SDS011;62824;52.994;-3.936;2022-12-07T07:32:39;5.40;;;1.88;;
74383;SDS011;62824;52.994;-3.936;2022-12-07T07:35:05;3.47;;;1.40;;
74383;SDS011;62824;52.994;-3.936;2022-12-07T07:37:31;0.40;;;0.32;;
74383;SDS011;62824;52.994;-3.936;2022-12-07T07:39:57;2.72;;;0.75;;
74383;SDS011;62824;52.994;-3.936;2022-12-07T07:42:22;2.72;;;0.77;;
74383;SDS011;62824;52.994;-3.936;2022-12-07T07:44:48;1.38;;;0.60;;
74383;SDS011;62824;52.994;-3.936;2022-12-07T07:47:14;2.78;;;0.50;;
74383;SDS011;62824;52.994;-3.936;2022-12-07T07:49:40;1.88;;;0.57;;
74383;SDS011;62824;52.994;-3.936;2022-12-07T07:52:06;0.90;;;0.88;;
74383;SDS011;62824;52.994;-3.936;2022-12-07T07:54:31;2.67;;;0.80;;
74383;SDS011;62824;52.994;-3.936;2022-12-07T07:56:58;3.17;;;0.60;;
74383;SDS011;62824;52.994;-3.936;2022-12-07T07:59:23;1.92;;;0.65;;
74383;SDS011;62824;52.994;-3.936;2022-12-07T08:01:50;1.70;;;1.10;;
74383;SDS011;62824;52.994;-3.936;2022-12-07T08:04:16;0.93;;;0.73;;
74383;SDS011;62824;52.994;-3.936;2022-12-07T08:06:41;3.50;;;0.80;;
74383;SDS011;62824;52.994;-3.936;2022-12-07T08:09:08;1.15;;;0.70;;
74383;SDS011;62824;52.994;-3.936;2022-12-07T08:11:34;1.17;;;0.90;;
74383;SDS011;62824;52.994;-3.936;2022-12-07T08:14:01;5.07;;;1.45;;
74383;SDS011;62824;52.994;-3.936;2022-12-07T08:16:27;5.05;;;1.15;;
74383;SDS011;62824;52.994;-3.936;2022-12-07T08:18:53;7.63;;;2.15;;
74383;SDS011;62824;52.994;-3.936;2022-12-07T08:21:19;7.68;;;3.05;;
74383;SDS011;62824;52.994;-3.936;2022-12-07T08:23:44;9.02;;;3.00;;
74383;SDS011;62824;52.994;-3.936;2022-12-07T08:26:11;4.40;;;1.30;;
74383;SDS011;62824;52.994;-3.936;2022-12-07T08:28:39;3.42;;;1.77;;
74383;SDS011;62824;52.994;-3.936;2022-12-07T08:31:06;4.95;;;2.35;;
74383;SDS011;62824;52.994;-3.936;2022-12-07T08:33:35;8.05;;;2.72;;
74383;SDS011;62824;52.994;-3.936;2022-12-07T08:36:01;2.67;;;1.13;;
74383;SDS011;62824;52.994;-3.936;2022-12-07T08:38:28;1.55;;;0.70;;
74383;SDS011;62824;52.994;-3.936;2022-12-07T08:40:54;3.38;;;0.80;;
74383;SDS011;62824;52.994;-3.936;2022-12-07T08:43:24;1.08;;;0.75;;
74383;SDS011;62824;52.994;-3.936;2022-12-07T08:48:46;2.78;;;0.50;;
74383;SDS011;62824;52.994;-3.936;2022-12-07T08:51:17;1.45;;;0.60;;
74383;SDS011;62824;52.994;-3.936;2022-12-07T08:53:44;3.05;;;1.40;;
74383;SDS011;62824;52.994;-3.936;2022-12-07T08:56:10;2.72;;;0.65;;
74383;SDS011;62824;52.994;-3.936;2022-12-07T08:58:37;2.50;;;0.80;;
74383;SDS011;62824;52.994;-3.936;2022-12-07T09:01:03;1.60;;;0.60;;
74383;SDS011;62824;52.994;-3.936;2022-12-07T09:03:29;1.60;;;0.50;;
74383;SDS011;62824;52.994;-3.936;2022-12-07T09:05:55;0.95;;;0.77;;
74383;SDS011;62824;52.994;-3.936;2022-12-07T09:08:22;3.45;;;0.75;;
74383;SDS011;62824;52.994;-3.936;2022-12-07T09:10:56;2.78;;;0.52;;
74383;SDS011;62824;52.994;-3.936;2022-12-07T09:13:22;0.57;;;0.20;;
74383;SDS011;62824;52.994;-3.936;2022-12-07T09:15:49;2.75;;;0.60;;
74383;SDS011;62824;52.994;-3.936;2022-12-07T09:18:15;4.10;;;0.70;;
74383;SDS011;62824;52.994;-3.936;2022-12-07T09:20:41;4.82;;;1.00;;
74383;SDS011;62824;52.994;-3.936;2022-12-07T09:23:07;2.13;;;0.90;;
74383;SDS011;62824;52.994;-3.936;2022-12-07T09:25:33;1.75;;;0.60;;
74383;SDS011;62824;52.994;-3.936;2022-12-07T09:27:59;4.15;;;1.45;;
74383;SDS011;62824;52.994;-3.936;2022-12-07T09:30:26;2.58;;;1.33;;
74383;SDS011;62824;52.994;-3.936;2022-12-07T09:32:53;1.40;;;0.60;;
74383;SDS011;62824;52.994;-3.936;2022-12-07T09:35:20;1.27;;;0.47;;
74383;SDS011;62824;52.994;-3.936;2022-12-07T09:37:46;1.55;;;0.65;;
74383;SDS011;62824;52.994;-3.936;2022-12-07T09:40:12;1.58;;;0.50;;
74383;SDS011;62824;52.994;-3.936;2022-12-07T09:42:41;19.15;;;8.75;;
74383;SDS011;62824;52.994;-3.936;2022-12-07T09:45:12;1.88;;;0.47;;
74383;SDS011;62824;52.994;-3.936;2022-12-07T09:47:44;1.70;;;0.35;;
74383;SDS011;62824;52.994;-3.936;2022-12-07T09:50:15;0.32;;;0.13;;
74383;SDS011;62824;52.994;-3.936;2022-12-07T09:52:46;1.13;;;0.60;;
74383;SDS011;62824;52.994;-3.936;2022-12-07T09:55:18;0.68;;;0.30;;
74383;SDS011;62824;52.994;-3.936;2022-12-07T09:57:47;4.18;;;0.70;;
74383;SDS011;62824;52.994;-3.936;2022-12-07T10:00:18;1.52;;;0.50;;
74383;SDS011;62824;52.994;-3.936;2022-12-07T10:07:48;0.47;;;0.32;;
74383;SDS011;62824;52.994;-3.936;2022-12-07T10:10:18;3.38;;;0.57;;
74383;SDS011;62824;52.994;-3.936;2022-12-07T10:23:32;1.35;;;0.50;;
74383;SDS011;62824;52.994;-3.936;2022-12-07T10:25:59;0.38;;;0.30;;
74383;SDS011;62824;52.994;-3.936;2022-12-07T10:28:51;0.93;;;0.73;;
74383;SDS011;62824;52.994;-3.936;2022-12-07T10:31:18;4.68;;;1.27;;
74383;SDS011;62824;52.994;-3.936;2022-12-07T10:36:16;0.60;;;0.50;;
74383;SDS011;62824;52.994;-3.936;2022-12-07T10:38:47;1.10;;;0.40;;
74383;SDS011;62824;52.994;-3.936;2022-12-07T10:41:24;1.05;;;0.30;;
74383;SDS011;62824;52.994;-3.936;2022-12-07T10:43:52;3.03;;;0.73;;
74383;SDS011;62824;52.994;-3.936;2022-12-07T10:46:43;3.35;;;0.60;;
74383;SDS011;62824;52.994;-3.936;2022-12-07T11:00:30;0.70;;;0.47;;
74383;SDS011;62824;52.994;-3.936;2022-12-07T11:03:21;3.83;;;1.20;;
74383;SDS011;62824;52.994;-3.936;2022-12-07T11:13:56;2.00;;;0.70;;
74383;SDS011;62824;52.994;-3.936;2022-12-07T11:19:13;4.50;;;1.00;;
74383;SDS011;62824;52.994;-3.936;2022-12-07T11:24:35;1.95;;;1.02;;
74383;SDS011;62824;52.994;-3.936;2022-12-07T11:28:13;1.80;;;0.90;;
74383;SDS011;62824;52.994;-3.936;2022-12-07T11:31:00;2.50;;;1.00;;
74383;SDS011;62824;52.994;-3.936;2022-12-07T11:34:00;1.25;;;0.82;;
74383;SDS011;62824;52.994;-3.936;2022-12-07T11:36:38;5.43;;;2.30;;
74383;SDS011;62824;52.994;-3.936;2022-12-07T11:41:44;4.38;;;1.33;;
74383;SDS011;62824;52.994;-3.936;2022-12-07T11:50:01;2.13;;;1.20;;
74383;SDS011;62824;52.994;-3.936;2022-12-07T11:52:17;3.97;;;1.20;;
74383;SDS011;62824;52.994;-3.936;2022-12-07T11:54:50;3.17;;;1.33;;
74383;SDS011;62824;52.994;-3.936;2022-12-07T11:57:28;1.85;;;0.90;;
74383;SDS011;62824;52.994;-3.936;2022-12-07T12:00:02;5.15;;;0.80;;
74383;SDS011;62824;52.994;-3.936;2022-12-07T12:02:37;2.20;;;0.70;;
74383;SDS011;62824;52.994;-3.936;2022-12-07T12:05:16;2.88;;;0.80;;
74383;SDS011;62824;52.994;-3.936;2022-12-07T12:07:44;2.50;;;0.98;;
74383;SDS011;62824;52.994;-3.936;2022-12-07T12:16:04;5.22;;;1.80;;
74383;SDS011;62824;52.994;-3.936;2022-12-07T12:18:36;3.35;;;0.60;;
74383;SDS011;62824;52.994;-3.936;2022-12-07T12:21:26;0.80;;;0.50;;
74383;SDS011;62824;52.994;-3.936;2022-12-07T12:23:58;0.57;;;0.50;;
74383;SDS011;62824;52.994;-3.936;2022-12-07T12:26:32;3.42;;;1.40;;
74383;SDS011;62824;52.994;-3.936;2022-12-07T12:29:02;2.03;;;0.77;;
74383;SDS011;62824;52.994;-3.936;2022-12-07T12:31:37;1.48;;;0.52;;
74383;SDS011;62824;52.994;-3.936;2022-12-07T12:37:38;2.38;;;0.90;;
74383;SDS011;62824;52.994;-3.936;2022-12-07T12:42:44;1.98;;;1.05;;
74383;SDS011;62824;52.994;-3.936;2022-12-07T12:45:22;3.83;;;1.40;;
74383;SDS011;62824;52.994;-3.936;2022-12-07T12:50:28;6.38;;;3.03;;
74383;SDS011;62824;52.994;-3.936;2022-12-07T12:52:58;1.33;;;0.60;;
74383;SDS011;62824;52.994;-3.936;2022-12-07T13:00:47;1.92;;;1.00;;
74383;SDS011;62824;52.994;-3.936;2022-12-07T13:03:34;5.60;;;1.10;;
74383;SDS011;62824;52.994;-3.936;2022-12-07T13:06:19;1.98;;;0.77;;
74383;SDS011;62824;52.994;-3.936;2022-12-07T13:08:58;2.20;;;0.90;;
74383;SDS011;62824;52.994;-3.936;2022-12-07T13:13:56;2.03;;;0.93;;
74383;SDS011;62824;52.994;-3.936;2022-12-07T13:16:58;3.40;;;0.60;;
74383;SDS011;62824;52.994;-3.936;2022-12-07T13:24:59;1.02;;;0.75;;
74383;SDS011;62824;52.994;-3.936;2022-12-07T13:27:33;4.03;;;0.65;;
74383;SDS011;62824;52.994;-3.936;2022-12-07T13:30:11;2.80;;;1.27;;
74383;SDS011;62824;52.994;-3.936;2022-12-07T13:32:54;1.52;;;0.63;;
74383;SDS011;62824;52.994;-3.936;2022-12-07T13:37:53;1.67;;;0.82;;
74383;SDS011;62824;52.994;-3.936;2022-12-07T13:40:20;0.88;;;0.35;;
74383;SDS011;62824;52.994;-3.936;2022-12-07T13:42:47;3.95;;;0.77;;
74383;SDS011;62824;52.994;-3.936;2022-12-07T13:45:21;2.10;;;0.73;;
74383;SDS011;62824;52.994;-3.936;2022-12-07T13:48:23;1.67;;;0.63;;
74383;SDS011;62824;52.994;-3.936;2022-12-07T13:51:24;1.38;;;0.63;;
74383;SDS011;62824;52.994;-3.936;2022-12-07T13:53:53;2.53;;;0.77;;
74383;SDS011;62824;52.994;-3.936;2022-12-07T13:56:22;2.15;;;1.00;;
74383;SDS011;62824;52.994;-3.936;2022-12-07T13:58:51;3.22;;;0.80;;
74383;SDS011;62824;52.994;-3.936;2022-12-07T14:01:17;4.43;;;1.20;;
74383;SDS011;62824;52.994;-3.936;2022-12-07T14:03:43;1.92;;;0.47;;
74383;SDS011;62824;52.994;-3.936;2022-12-07T14:06:17;9.82;;;4.00;;
74383;SDS011;62824;52.994;-3.936;2022-12-07T14:08:47;1.85;;;0.60;;
74383;SDS011;62824;52.994;-3.936;2022-12-07T14:11:14;1.40;;;0.47;;
74383;SDS011;62824;52.994;-3.936;2022-12-07T14:13:58;2.40;;;0.65;;
74383;SDS011;62824;52.994;-3.936;2022-12-07T14:16:29;0.77;;;0.60;;
74383;SDS011;62824;52.994;-3.936;2022-12-07T14:19:03;1.52;;;1.00;;
74383;SDS011;62824;52.994;-3.936;2022-12-07T14:21:33;1.73;;;0.93;;
74383;SDS011;62824;52.994;-3.936;2022-12-07T14:24:04;2.75;;;1.50;;
74383;SDS011;62824;52.994;-3.936;2022-12-07T14:26:44;2.15;;;0.80;;
74383;SDS011;62824;52.994;-3.936;2022-12-07T14:29:21;1.48;;;0.60;;
74383;SDS011;62824;52.994;-3.936;2022-12-07T14:31:48;0.52;;;0.50;;
74383;SDS011;62824;52.994;-3.936;2022-12-07T14:34:13;1.13;;;0.60;;
74383;SDS011;62824;52.994;-3.936;2022-12-07T14:36:39;0.80;;;0.50;;
74383;SDS011;62824;52.994;-3.936;2022-12-07T14:39:05;0.60;;;0.45;;
74383;SDS011;62824;52.994;-3.936;2022-12-07T14:41:31;4.35;;;0.82;;
74383;SDS011;62824;52.994;-3.936;2022-12-07T14:44:15;0.65;;;0.55;;
74383;SDS011;62824;52.994;-3.936;2022-12-07T14:46:41;0.50;;;0.30;;
74383;SDS011;62824;52.994;-3.936;2022-12-07T14:49:07;1.20;;;0.73;;
74383;SDS011;62824;52.994;-3.936;2022-12-07T14:51:33;1.23;;;0.68;;
74383;SDS011;62824;52.994;-3.936;2022-12-07T14:54:01;2.03;;;0.80;;
74383;SDS011;62824;52.994;-3.936;2022-12-07T14:56:27;0.93;;;0.45;;
74383;SDS011;62824;52.994;-3.936;2022-12-07T14:58:53;4.03;;;1.10;;
74383;SDS011;62824;52.994;-3.936;2022-12-07T15:01:18;3.17;;;1.83;;
74383;SDS011;62824;52.994;-3.936;2022-12-07T15:03:44;2.40;;;1.58;;
74383;SDS011;62824;52.994;-3.936;2022-12-07T15:06:12;4.65;;;2.05;;
74383;SDS011;62824;52.994;-3.936;2022-12-07T15:08:39;10.38;;;4.72;;
74383;SDS011;62824;52.994;-3.936;2022-12-07T15:11:05;14.00;;;6.53;;
74383;SDS011;62824;52.994;-3.936;2022-12-07T15:13:31;7.85;;;4.20;;
74383;SDS011;62824;52.994;-3.936;2022-12-07T15:16:16;5.70;;;3.45;;
74383;SDS011;62824;52.994;-3.936;2022-12-07T15:18:46;6.22;;;3.10;;
74383;SDS011;62824;52.994;-3.936;2022-12-07T15:21:15;8.68;;;4.47;;
74383;SDS011;62824;52.994;-3.936;2022-12-07T15:23:41;8.65;;;5.63;;
74383;SDS011;62824;52.994;-3.936;2022-12-07T15:26:07;7.10;;;5.18;;
74383;SDS011;62824;52.994;-3.936;2022-12-07T15:28:35;14.32;;;6.30;;
74383;SDS011;62824;52.994;-3.936;2022-12-07T15:31:01;12.40;;;5.93;;
74383;SDS011;62824;52.994;-3.936;2022-12-07T15:33:27;13.25;;;7.72;;
74383;SDS011;62824;52.994;-3.936;2022-12-07T15:35:53;15.68;;;9.18;;
74383;SDS011;62824;52.994;-3.936;2022-12-07T15:38:19;10.38;;;6.70;;
74383;SDS011;62824;52.994;-3.936;2022-12-07T15:40:48;10.05;;;5.30;;
74383;SDS011;62824;52.994;-3.936;2022-12-07T15:43:14;11.02;;;4.65;;
74383;SDS011;62824;52.994;-3.936;2022-12-07T15:45:58;10.23;;;5.82;;
74383;SDS011;62824;52.994;-3.936;2022-12-07T15:48:24;14.77;;;6.70;;
74383;SDS011;62824;52.994;-3.936;2022-12-07T15:50:50;9.85;;;5.20;;
74383;SDS011;62824;52.994;-3.936;2022-12-07T15:53:16;7.35;;;3.72;;
74383;SDS011;62824;52.994;-3.936;2022-12-07T15:55:42;15.65;;;6.95;;
74383;SDS011;62824;52.994;-3.936;2022-12-07T15:58:08;10.82;;;5.82;;
74383;SDS011;62824;52.994;-3.936;2022-12-07T16:00:33;8.88;;;4.85;;
74383;SDS011;62824;52.994;-3.936;2022-12-07T16:03:03;15.98;;;11.57;;
74383;SDS011;62824;52.994;-3.936;2022-12-07T16:05:29;15.68;;;8.13;;
74383;SDS011;62824;52.994;-3.936;2022-12-07T16:08:01;8.70;;;4.70;;
74383;SDS011;62824;52.994;-3.936;2022-12-07T16:10:30;12.45;;;6.28;;
74383;SDS011;62824;52.994;-3.936;2022-12-07T16:12:56;11.93;;;4.90;;
74383;SDS011;62824;52.994;-3.936;2022-12-07T16:15:22;9.55;;;5.53;;
74383;SDS011;62824;52.994;-3.936;2022-12-07T16:17:54;12.00;;;5.40;;
74383;SDS011;62824;52.994;-3.936;2022-12-07T16:20:20;6.25;;;3.30;;
74383;SDS011;62824;52.994;-3.936;2022-12-07T16:22:46;4.80;;;2.92;;
74383;SDS011;62824;52.994;-3.936;2022-12-07T16:25:12;7.90;;;3.83;;
74383;SDS011;62824;52.994;-3.936;2022-12-07T16:27:38;7.30;;;4.32;;
74383;SDS011;62824;52.994;-3.936;2022-12-07T16:30:04;11.68;;;5.50;;
74383;SDS011;62824;52.994;-3.936;2022-12-07T16:32:31;9.55;;;5.57;;
74383;SDS011;62824;52.994;-3.936;2022-12-07T16:34:57;11.23;;;5.07;;
74383;SDS011;62824;52.994;-3.936;2022-12-07T16:37:22;6.85;;;3.92;;
74383;SDS011;62824;52.994;-3.936;2022-12-07T16:39:48;11.77;;;5.22;;
74383;SDS011;62824;52.994;-3.936;2022-12-07T16:42:14;16.95;;;9.63;;
74383;SDS011;62824;52.994;-3.936;2022-12-07T16:44:40;13.13;;;6.88;;
74383;SDS011;62824;52.994;-3.936;2022-12-07T16:47:06;10.90;;;6.20;;
74383;SDS011;62824;52.994;-3.936;2022-12-07T16:49:32;12.98;;;8.02;;
74383;SDS011;62824;52.994;-3.936;2022-12-07T16:51:58;12.80;;;7.40;;
74383;SDS011;62824;52.994;-3.936;2022-12-07T16:54:23;11.93;;;6.10;;